createdAt,value
2018-04-11T00:00:02.443Z,8.44
2018-04-11T00:02:29.977Z,8.46
2018-04-11T00:04:57.526Z,8.57
2018-04-11T00:07:25.476Z,8.54
2018-04-11T00:09:53.061Z,8.50
2018-04-11T00:12:21.803Z,8.53
2018-04-11T00:14:49.343Z,8.39
2018-04-11T00:17:17.249Z,8.36
2018-04-11T00:19:44.806Z,8.37
2018-04-11T00:22:12.356Z,8.42
2018-04-11T00:24:39.956Z,8.36
2018-04-11T00:27:07.595Z,8.27
2018-04-11T00:29:35.185Z,8.19
2018-04-11T00:32:02.742Z,8.09
2018-04-11T00:34:30.280Z,8.08
2018-04-11T00:36:57.844Z,8.07
2018-04-11T00:39:25.420Z,8.27
2018-04-11T00:41:52.965Z,8.27
2018-04-11T00:44:21.472Z,8.12
2018-04-11T00:46:49.282Z,8.11
2018-04-11T00:49:17.080Z,8.07
2018-04-11T00:51:45.562Z,7.99
2018-04-11T00:54:13.103Z,8.02
2018-04-11T00:56:40.635Z,7.99
2018-04-11T00:59:08.219Z,7.97
2018-04-11T01:01:35.754Z,8.04
2018-04-11T01:04:03.291Z,8.10
2018-04-11T01:06:31.084Z,8.13
2018-04-11T01:08:58.631Z,8.13
2018-04-11T01:11:26.280Z,8.19
2018-04-11T01:13:53.913Z,8.19
2018-04-11T01:16:21.468Z,8.14
2018-04-11T01:18:49.030Z,8.13
2018-04-11T01:21:16.548Z,8.12
2018-04-11T01:23:44.115Z,8.06
2018-04-11T01:26:11.653Z,7.97
2018-04-11T01:28:39.194Z,7.88
2018-04-11T01:31:06.766Z,7.80
2018-04-11T01:33:34.628Z,7.72
2018-04-11T01:36:02.422Z,7.81
2018-04-11T01:38:31.041Z,7.81
2018-04-11T01:40:58.573Z,7.69
2018-04-11T01:43:26.140Z,7.59
2018-04-11T01:45:53.704Z,7.50
2018-04-11T01:48:21.253Z,7.37
2018-04-11T01:50:48.795Z,7.43
2018-04-11T01:53:16.312Z,7.44
2018-04-11T01:55:43.883Z,7.34
2018-04-11T01:58:11.419Z,7.36
2018-04-11T02:00:40.170Z,7.22
2018-04-11T02:03:07.764Z,7.17
2018-04-11T02:05:35.529Z,7.15
2018-04-11T02:08:03.100Z,7.15
2018-04-11T02:10:31.659Z,7.16
2018-04-11T02:12:59.186Z,7.21
2018-04-11T02:15:27.543Z,7.29
2018-04-11T02:17:56.733Z,7.33
2018-04-11T02:20:26.863Z,7.19
2018-04-11T02:22:54.494Z,7.12
2018-04-11T02:25:22.085Z,7.05
2018-04-11T02:27:49.771Z,6.88
2018-04-11T02:30:17.341Z,6.85
2018-04-11T02:32:45.247Z,6.97
2018-04-11T02:35:13.218Z,7.01
2018-04-11T02:37:42.466Z,7.13
2018-04-11T02:40:10.012Z,7.11
2018-04-11T02:42:38.573Z,7.08
2018-04-11T02:45:06.396Z,6.97
2018-04-11T02:47:35.930Z,6.96
2018-04-11T02:50:03.576Z,6.84
2018-04-11T02:52:31.107Z,6.85
2018-04-11T02:54:58.653Z,6.85
2018-04-11T02:57:26.747Z,6.85
2018-04-11T02:59:54.329Z,6.86
2018-04-11T03:02:21.906Z,6.81
2018-04-11T03:04:49.459Z,6.75
2018-04-11T03:07:17.076Z,6.72
2018-04-11T03:09:44.634Z,6.67
2018-04-11T03:12:12.216Z,6.63
2018-04-11T03:14:39.784Z,6.57
2018-04-11T03:17:08.284Z,6.50
2018-04-11T03:19:36.196Z,6.50
2018-04-11T03:22:03.985Z,6.47
2018-04-11T03:24:31.557Z,6.50
2018-04-11T03:26:59.135Z,6.40
2018-04-11T03:29:26.660Z,6.27
2018-04-11T03:31:54.197Z,6.15
2018-04-11T03:34:21.734Z,6.19
2018-04-11T03:36:49.601Z,6.19
2018-04-11T03:39:17.164Z,6.19
2018-04-11T03:41:44.713Z,6.24
2018-04-11T03:44:12.344Z,6.35
2018-04-11T03:46:39.893Z,6.28
2018-04-11T03:49:07.833Z,6.31
2018-04-11T03:51:35.421Z,6.34
2018-04-11T03:54:03.146Z,6.35
2018-04-11T03:56:31.366Z,6.34
2018-04-11T03:58:58.919Z,6.33
2018-04-11T04:01:26.482Z,6.26
2018-04-11T04:03:56.452Z,6.22
2018-04-11T04:06:24.040Z,6.27
2018-04-11T04:08:51.582Z,6.36
2018-04-11T04:14:21.238Z,6.15
2018-04-11T04:17:00.581Z,6.12
2018-04-11T04:19:33.966Z,6.12
2018-04-11T04:22:01.539Z,6.10
2018-04-11T04:24:29.967Z,6.14
2018-04-11T04:26:57.512Z,6.12
2018-04-11T04:29:25.128Z,6.16
2018-04-11T04:31:52.684Z,6.20
2018-04-11T04:34:20.250Z,6.37
2018-04-11T04:36:47.840Z,6.44
2018-04-11T04:39:15.374Z,6.51
2018-04-11T04:41:44.508Z,6.51
2018-04-11T04:44:12.152Z,6.56
2018-04-11T04:46:40.310Z,6.57
2018-04-11T04:49:07.808Z,6.61
2018-04-11T04:51:36.468Z,6.57
2018-04-11T04:54:04.077Z,6.74
2018-04-11T04:56:31.662Z,6.80
2018-04-11T04:58:59.210Z,6.83
2018-04-11T05:01:26.817Z,6.81
2018-04-11T05:03:54.363Z,6.98
2018-04-11T05:06:21.996Z,7.05
2018-04-11T05:08:49.578Z,7.23
2018-04-11T05:11:17.136Z,7.39
2018-04-11T05:13:44.671Z,7.54
2018-04-11T05:16:12.261Z,7.69
2018-04-11T05:18:41.129Z,7.84
2018-04-11T05:21:09.585Z,8.07
2018-04-11T05:23:37.234Z,8.18
2018-04-11T05:26:06.120Z,8.10
2018-04-11T05:28:33.791Z,7.99
2018-04-11T05:31:01.372Z,7.97
2018-04-11T05:33:29.039Z,8.27
2018-04-11T05:35:57.178Z,8.50
2018-04-11T05:38:24.761Z,8.61
2018-04-11T05:40:52.343Z,8.79
2018-04-11T05:43:20.044Z,9.19
2018-04-11T05:45:47.673Z,9.89
2018-04-11T05:48:15.237Z,10.37
2018-04-11T05:50:42.788Z,10.67
2018-04-11T05:53:10.864Z,10.84
2018-04-11T05:55:38.437Z,11.20
2018-04-11T05:58:05.975Z,11.50
2018-04-11T06:00:35.014Z,11.73
2018-04-11T06:03:02.578Z,11.89
2018-04-11T06:05:33.319Z,11.88
2018-04-11T06:08:01.176Z,11.84
2018-04-11T06:10:29.924Z,11.71
2018-04-11T06:12:59.685Z,11.67
2018-04-11T06:15:27.773Z,11.57
2018-04-11T06:17:55.367Z,11.71
2018-04-11T06:20:22.925Z,11.69
2018-04-11T06:22:50.726Z,11.88
2018-04-11T06:25:18.262Z,11.93
2018-04-11T06:27:45.811Z,11.66
2018-04-11T06:30:13.486Z,11.81
2018-04-11T06:32:46.633Z,11.95
2018-04-11T06:35:14.492Z,12.18
2018-04-11T06:37:44.344Z,12.32
2018-04-11T06:40:12.029Z,12.49
2018-04-11T06:42:44.007Z,12.71
2018-04-11T06:45:12.318Z,12.84
2018-04-11T06:47:43.564Z,12.88
2018-04-11T06:50:14.383Z,13.09
2018-04-11T06:52:45.944Z,13.04
2018-04-11T06:55:14.846Z,12.50
2018-04-11T06:57:43.749Z,12.77
2018-04-11T07:00:11.410Z,12.99
2018-04-11T07:02:38.980Z,13.42
2018-04-11T07:05:06.803Z,13.51
2018-04-11T07:07:34.339Z,13.36
2018-04-11T07:10:01.897Z,13.19
2018-04-11T07:12:29.443Z,13.64
2018-04-11T07:14:57.001Z,13.53
2018-04-11T07:17:24.544Z,13.54
2018-04-11T07:19:53.201Z,13.68
2018-04-11T07:22:20.967Z,13.79
2018-04-11T07:24:48.519Z,13.84
2018-04-11T07:27:16.611Z,13.90
2018-04-11T07:29:44.373Z,13.82
2018-04-11T07:32:12.132Z,13.28
2018-04-11T07:34:43.155Z,13.41
2018-04-11T07:37:10.817Z,13.61
2018-04-11T07:39:39.171Z,13.47
2018-04-11T07:42:06.937Z,13.30
2018-04-11T07:44:34.949Z,13.98
2018-04-11T07:47:02.671Z,14.37
2018-04-11T07:49:31.133Z,13.48
2018-04-11T07:51:59.805Z,13.55
2018-04-11T07:54:27.426Z,14.07
2018-04-11T07:56:54.920Z,14.25
2018-04-11T07:59:22.476Z,14.36
2018-04-11T08:01:50.092Z,14.56
2018-04-11T08:04:17.899Z,14.67
2018-04-11T08:06:45.471Z,14.88
2018-04-11T08:09:13.516Z,14.60
2018-04-11T08:11:42.593Z,14.76
2018-04-11T08:14:11.927Z,14.86
2018-04-11T08:16:40.169Z,14.95
2018-04-11T08:19:08.049Z,15.24
2018-04-11T08:21:36.351Z,15.36
2018-04-11T08:24:03.361Z,15.13
2018-04-11T08:26:30.917Z,14.90
2018-04-11T08:28:58.505Z,14.50
2018-04-11T08:31:26.766Z,14.54
2018-04-11T08:33:54.354Z,15.18
2018-04-11T08:36:22.016Z,15.66
2018-04-11T08:38:49.570Z,15.87
2018-04-11T08:41:17.641Z,15.53
2018-04-11T08:43:46.629Z,15.93
2018-04-11T08:46:14.174Z,15.98
2018-04-11T08:48:41.713Z,16.22
2018-04-11T08:51:09.419Z,16.23
2018-04-11T08:53:37.832Z,16.27
2018-04-11T08:56:05.425Z,15.84
2018-04-11T08:58:34.053Z,16.23
2018-04-11T09:01:01.607Z,15.90
2018-04-11T09:03:29.227Z,16.17
2018-04-11T09:05:58.480Z,16.45
2018-04-11T09:08:26.076Z,16.54
2018-04-11T09:10:53.646Z,16.59
2018-04-11T09:13:21.420Z,16.91
2018-04-11T09:15:49.024Z,17.14
2018-04-11T09:18:16.587Z,17.12
2018-04-11T09:20:45.211Z,16.76
2018-04-11T09:23:13.597Z,16.81
2018-04-11T09:25:41.281Z,17.05
2018-04-11T09:28:08.814Z,17.12
2018-04-11T09:30:38.986Z,17.35
2018-04-11T09:33:07.339Z,17.53
2018-04-11T09:35:35.124Z,17.48
2018-04-11T09:38:02.666Z,17.72
2018-04-11T09:40:30.221Z,18.07
2018-04-11T09:42:57.780Z,17.89
2018-04-11T09:45:25.438Z,18.10
2018-04-11T09:47:54.139Z,18.34
2018-04-11T09:50:21.693Z,18.45
2018-04-11T09:52:49.234Z,18.54
2018-04-11T09:55:16.785Z,18.68
2018-04-11T09:57:44.338Z,18.66
2018-04-11T10:00:11.887Z,18.62
2018-04-11T10:02:39.934Z,18.67
2018-04-11T10:05:07.914Z,18.67
2018-04-11T10:07:40.387Z,18.72
2018-04-11T10:10:08.522Z,18.86
2018-04-11T10:12:37.179Z,19.11
2018-04-11T10:15:06.995Z,19.36
2018-04-11T10:17:35.579Z,19.12
2018-04-11T10:20:10.413Z,18.79
2018-04-11T10:22:41.763Z,18.67
2018-04-11T10:25:09.794Z,19.35
2018-04-11T10:27:37.716Z,19.67
2018-04-11T10:30:08.725Z,19.24
2018-04-11T10:32:36.706Z,19.59
2018-04-11T10:35:04.392Z,19.74
2018-04-11T10:37:32.531Z,19.69
2018-04-11T10:40:05.323Z,19.79
2018-04-11T10:42:35.564Z,20.00
2018-04-11T10:45:11.341Z,20.04
2018-04-11T10:47:42.836Z,20.27
2018-04-11T10:50:15.700Z,20.52
2018-04-11T10:52:45.499Z,20.44
2018-04-11T10:55:13.946Z,19.91
2018-04-11T10:57:41.528Z,19.76
2018-04-11T11:00:09.563Z,19.93
2018-04-11T11:02:37.288Z,20.03
2018-04-11T11:05:06.415Z,19.80
2018-04-11T11:07:35.345Z,19.68
2018-04-11T11:10:03.071Z,19.36
2018-04-11T11:12:31.159Z,19.55
2018-04-11T11:14:59.235Z,19.91
2018-04-11T11:17:27.762Z,20.07
2018-04-11T11:20:02.338Z,20.28
2018-04-11T11:22:33.552Z,20.39
2018-04-11T11:25:01.113Z,20.57
2018-04-11T11:27:28.701Z,20.67
2018-04-11T11:29:56.985Z,21.04
2018-04-11T11:32:24.533Z,21.37
2018-04-11T11:34:52.097Z,21.91
2018-04-11T11:37:20.067Z,22.28
2018-04-11T11:39:48.536Z,23.66
2018-04-11T11:42:16.192Z,24.58
2018-04-11T11:44:44.095Z,25.01
2018-04-11T11:47:11.708Z,25.75
2018-04-11T11:49:43.369Z,26.86
2018-04-11T11:52:10.929Z,27.61
2018-04-11T11:54:39.739Z,26.14
2018-04-11T11:57:07.354Z,26.48
2018-04-11T11:59:37.175Z,26.25
2018-04-11T12:02:04.913Z,26.47
2018-04-11T12:04:32.843Z,26.83
2018-04-11T12:07:00.473Z,28.18
2018-04-11T12:09:28.781Z,29.07
2018-04-11T12:11:56.395Z,28.67
2018-04-11T12:14:23.952Z,28.93
2018-04-11T12:16:51.502Z,28.64
2018-04-11T12:19:19.091Z,27.45
2018-04-11T12:21:49.007Z,26.69
2018-04-11T12:24:17.340Z,27.33
2018-04-11T12:26:44.978Z,27.55
2018-04-11T12:29:12.702Z,27.97
2018-04-11T12:31:40.282Z,28.58
2018-04-11T12:34:08.676Z,28.40
2018-04-11T12:36:36.221Z,28.79
2018-04-11T12:39:03.865Z,29.23
2018-04-11T12:41:31.643Z,28.58
2018-04-11T12:43:59.176Z,29.21
2018-04-11T12:46:26.736Z,30.10
2018-04-11T12:48:54.266Z,29.95
2018-04-11T12:51:21.812Z,28.36
2018-04-11T12:53:51.711Z,28.64
2018-04-11T12:56:19.274Z,28.17
2018-04-11T12:58:46.854Z,28.88
2018-04-11T13:01:14.412Z,28.61
2018-04-11T13:03:42.011Z,27.18
2018-04-11T13:06:09.660Z,26.03
2018-04-11T13:08:37.383Z,26.86
2018-04-11T13:11:04.942Z,27.72
2018-04-11T13:13:32.468Z,27.16
2018-04-11T13:16:00.009Z,27.29
2018-04-11T13:18:28.425Z,27.38
2018-04-11T13:20:55.960Z,28.40
2018-04-11T13:23:23.722Z,28.99
2018-04-11T13:25:52.623Z,28.85
2018-04-11T13:28:20.178Z,27.09
2018-04-11T13:30:48.603Z,26.56
2018-04-11T13:33:16.248Z,27.07
2018-04-11T13:35:43.794Z,28.14
2018-04-11T13:38:12.051Z,27.25
2018-04-11T13:40:41.718Z,26.50
2018-04-11T13:43:09.282Z,27.00
2018-04-11T13:45:37.148Z,27.52
2018-04-11T13:48:04.738Z,29.04
2018-04-11T13:50:32.316Z,28.08
2018-04-11T13:52:59.870Z,28.52
2018-04-11T13:55:27.432Z,28.95
2018-04-11T13:57:56.914Z,29.14
2018-04-11T14:00:24.504Z,28.27
2018-04-11T14:02:53.217Z,28.50
2018-04-11T14:05:22.371Z,28.90
2018-04-11T14:08:00.262Z,29.11
2018-04-11T14:10:28.125Z,27.87
2018-04-11T14:12:56.881Z,28.83
2018-04-11T14:15:24.467Z,29.48
2018-04-11T14:17:53.087Z,28.50
2018-04-11T14:20:22.936Z,27.34
2018-04-11T14:22:54.400Z,29.07
2018-04-11T14:25:22.324Z,29.43
2018-04-11T14:27:52.461Z,28.84
2018-04-11T14:30:20.035Z,29.17
2018-04-11T14:32:49.388Z,29.40
2018-04-11T14:35:18.070Z,28.90
2018-04-11T14:37:53.274Z,27.67
2018-04-11T14:40:21.497Z,27.62
2018-04-11T14:42:56.746Z,27.81
2018-04-11T14:45:24.680Z,26.39
2018-04-11T14:47:57.117Z,25.93
2018-04-11T14:50:25.141Z,25.78
2018-04-11T14:52:56.458Z,25.65
2018-04-11T14:55:24.430Z,25.60
2018-04-11T14:57:53.643Z,25.01
2018-04-11T15:00:21.203Z,26.64
2018-04-11T15:02:48.790Z,27.51
2018-04-11T15:05:16.317Z,27.75
2018-04-11T15:07:43.860Z,27.40
2018-04-11T15:10:11.445Z,26.06
2018-04-11T15:12:39.157Z,25.86
2018-04-11T15:15:06.705Z,25.69
2018-04-11T15:17:35.173Z,25.99
2018-04-11T15:20:03.511Z,27.10
2018-04-11T15:22:31.304Z,27.72
2018-04-11T15:24:58.863Z,27.68
2018-04-11T15:27:27.369Z,27.01
2018-04-11T15:29:54.989Z,25.64
2018-04-11T15:32:22.548Z,26.21
2018-04-11T15:34:50.118Z,26.99
2018-04-11T15:37:17.727Z,26.73
2018-04-11T15:39:47.138Z,26.97
2018-04-11T15:42:14.887Z,26.90
2018-04-11T15:44:42.666Z,28.06
2018-04-11T15:47:10.344Z,28.05
2018-04-11T15:49:40.688Z,25.73
2018-04-11T15:52:08.852Z,24.94
2018-04-11T15:54:36.547Z,24.84
2018-04-11T15:57:04.801Z,25.48
2018-04-11T15:59:32.726Z,25.35
2018-04-11T16:02:00.586Z,25.53
2018-04-11T16:04:28.175Z,23.91
2018-04-11T16:06:55.787Z,24.65
2018-04-11T16:09:25.396Z,25.00
2018-04-11T16:11:55.101Z,25.09
2018-04-11T16:14:22.777Z,25.51
2018-04-11T16:16:52.983Z,25.78
2018-04-11T16:19:22.577Z,24.36
2018-04-11T16:21:50.271Z,23.89
2018-04-11T16:24:18.487Z,23.11
2018-04-11T16:26:46.044Z,22.89
2018-04-11T16:29:16.738Z,22.23
2018-04-11T16:31:44.501Z,21.91
2018-04-11T16:34:13.146Z,21.23
2018-04-11T16:36:40.676Z,21.13
2018-04-11T16:39:08.519Z,21.25
2018-04-11T16:41:36.102Z,20.89
2018-04-11T16:44:03.718Z,20.67
2018-04-11T16:46:35.286Z,20.21
2018-04-11T16:49:03.061Z,19.88
2018-04-11T16:51:31.036Z,19.68
2018-04-11T16:53:59.219Z,19.05
2018-04-11T16:56:26.818Z,18.56
2018-04-11T16:58:54.372Z,18.22
2018-04-11T17:01:22.240Z,17.87
2018-04-11T17:03:51.101Z,17.69
2018-04-11T17:06:18.691Z,17.38
2018-04-11T17:08:46.946Z,17.19
2018-04-11T17:11:14.742Z,17.24
2018-04-11T17:13:43.668Z,17.12
2018-04-11T17:16:11.396Z,16.94
2018-04-11T17:18:45.271Z,16.69
2018-04-11T17:21:24.694Z,16.49
2018-04-11T17:24:04.037Z,16.43
2018-04-11T17:26:43.452Z,16.18
2018-04-11T17:29:23.032Z,15.93
2018-04-11T17:31:51.284Z,15.80
2018-04-11T17:34:18.890Z,15.56
2018-04-11T17:36:46.461Z,15.37
2018-04-11T17:39:14.228Z,15.30
2018-04-11T17:41:42.111Z,15.20
2018-04-11T17:44:09.737Z,15.15
2018-04-11T17:46:37.367Z,14.93
2018-04-11T17:49:04.947Z,14.82
2018-04-11T17:51:32.663Z,14.71
2018-04-11T17:54:00.290Z,14.58
2018-04-11T17:56:27.844Z,14.49
2018-04-11T17:58:55.464Z,14.45
2018-04-11T18:01:23.071Z,14.46
2018-04-11T18:03:52.936Z,14.42
2018-04-11T18:06:23.711Z,14.38
2018-04-11T18:11:30.946Z,14.14
2018-04-11T18:14:06.544Z,14.07
2018-04-11T18:16:38.119Z,13.94
2018-04-11T18:19:06.158Z,13.87
2018-04-11T18:21:36.890Z,13.89
2018-04-11T18:24:06.887Z,13.88
2018-04-11T18:26:34.606Z,13.85
2018-04-11T18:29:06.251Z,13.80
2018-04-11T18:31:34.116Z,13.76
2018-04-11T18:34:02.093Z,13.63
2018-04-11T18:36:29.915Z,13.46
2018-04-11T18:39:00.499Z,13.29
2018-04-11T18:41:28.033Z,13.27
2018-04-11T18:44:00.048Z,13.23
2018-04-11T18:49:00.110Z,13.19
2018-04-11T18:51:32.254Z,13.13
2018-04-11T18:54:01.434Z,13.07
2018-04-11T18:56:29.500Z,12.98
2018-04-11T18:58:57.051Z,12.90
2018-04-11T19:01:24.629Z,12.84
2018-04-11T19:03:52.864Z,12.84
2018-04-11T19:06:21.091Z,12.81
2018-04-11T19:08:48.867Z,12.80
2018-04-11T19:11:16.403Z,12.75
2018-04-11T19:13:47.348Z,12.69
2018-04-11T19:16:14.909Z,12.66
2018-04-11T19:18:44.815Z,12.63
2018-04-11T19:21:12.696Z,12.58
2018-04-11T19:23:41.009Z,12.46
2018-04-11T19:26:08.717Z,12.36
2018-04-11T19:28:37.608Z,12.33
2018-04-11T19:31:05.174Z,12.26
2018-04-11T19:33:33.489Z,12.25
2018-04-11T19:36:02.816Z,12.23
2018-04-11T19:38:30.698Z,12.19
2018-04-11T19:40:58.260Z,12.10
2018-04-11T19:43:25.928Z,12.08
2018-04-11T19:45:53.536Z,12.04
2018-04-11T19:48:21.080Z,11.99
2018-04-11T19:50:48.653Z,11.97
2018-04-11T19:53:16.302Z,11.92
2018-04-11T19:55:43.856Z,11.89
2018-04-11T19:58:11.417Z,11.91
2018-04-11T20:00:39.380Z,11.91
2018-04-11T20:03:07.258Z,11.84
2018-04-11T20:05:35.274Z,11.75
2018-04-11T20:08:05.541Z,11.72
2018-04-11T20:10:33.352Z,11.70
2018-04-11T20:13:00.902Z,11.65
2018-04-11T20:15:28.868Z,11.61
2018-04-11T20:17:56.414Z,11.69
2018-04-11T20:20:23.967Z,11.73
2018-04-11T20:22:51.548Z,11.60
2018-04-11T20:25:19.081Z,11.48
2018-04-11T20:27:47.966Z,11.41
2018-04-11T20:30:15.964Z,11.39
2018-04-11T20:32:43.524Z,11.29
2018-04-11T20:35:11.467Z,11.19
2018-04-11T20:37:39.610Z,11.11
2018-04-11T20:40:07.145Z,11.07
2018-04-11T20:42:35.039Z,11.09
2018-04-11T20:45:02.854Z,11.02
2018-04-11T20:47:33.008Z,11.11
2018-04-11T20:50:00.764Z,11.01
2018-04-11T20:52:28.395Z,10.92
2018-04-11T20:54:55.970Z,10.94
2018-04-11T20:57:23.520Z,10.89
2018-04-11T20:59:51.045Z,10.91
2018-04-11T21:02:18.618Z,10.85
2018-04-11T21:04:46.163Z,10.82
2018-04-11T21:07:14.251Z,10.70
2018-04-11T21:09:41.979Z,10.67
2018-04-11T21:12:09.545Z,10.59
2018-04-11T21:14:37.079Z,10.51
2018-04-11T21:17:04.895Z,10.42
2018-04-11T21:19:34.112Z,10.38
2018-04-11T21:22:01.693Z,10.36
2018-04-11T21:24:30.278Z,10.32
2018-04-11T21:26:57.939Z,10.28
2018-04-11T21:29:26.873Z,10.36
2018-04-11T21:31:54.448Z,10.28
2018-04-11T21:34:22.139Z,10.25
2018-04-11T21:36:49.705Z,10.19
2018-04-11T21:39:17.844Z,10.15
2018-04-11T21:41:45.522Z,10.14
2018-04-11T21:44:13.082Z,10.20
2018-04-11T21:46:40.677Z,10.21
2018-04-11T21:49:08.372Z,10.22
2018-04-11T21:51:35.954Z,10.16
2018-04-11T21:54:03.585Z,10.17
2018-04-11T21:56:31.161Z,10.15
2018-04-11T21:58:58.693Z,10.18
2018-04-11T22:01:29.023Z,10.24
2018-04-11T22:03:56.913Z,10.33
2018-04-11T22:06:27.941Z,10.34
2018-04-11T22:08:55.578Z,10.41
2018-04-11T22:11:23.171Z,10.50
2018-04-11T22:13:50.726Z,10.48
2018-04-11T22:16:20.063Z,10.41
2018-04-11T22:18:49.301Z,10.43
2018-04-11T22:21:17.500Z,10.49
2018-04-11T22:23:46.479Z,10.47
2018-04-11T22:26:14.050Z,10.49
2018-04-11T22:28:44.320Z,10.50
2018-04-11T22:31:12.537Z,10.63
2018-04-11T22:33:42.040Z,10.64
2018-04-11T22:36:09.582Z,10.94
2018-04-11T22:38:40.770Z,10.94
2018-04-11T22:41:08.909Z,10.81
2018-04-11T22:43:38.272Z,10.70
2018-04-11T22:46:05.891Z,10.60
2018-04-11T22:48:35.414Z,10.78
2018-04-11T22:51:02.960Z,10.86
2018-04-11T22:53:34.289Z,10.66
2018-04-11T22:56:04.121Z,10.48
2018-04-11T22:58:32.247Z,10.33
2018-04-11T23:00:59.957Z,10.17
2018-04-11T23:03:27.577Z,10.17
2018-04-11T23:05:56.819Z,9.99
2018-04-11T23:08:26.093Z,9.85
2018-04-11T23:10:53.700Z,9.81
2018-04-11T23:13:21.429Z,9.79
2018-04-11T23:15:51.436Z,9.83
2018-04-11T23:18:20.291Z,9.89
2018-04-11T23:20:48.158Z,9.90
2018-04-11T23:26:06.078Z,9.64
2018-04-11T23:28:33.613Z,9.57
2018-04-11T23:31:01.161Z,9.50
2018-04-11T23:33:28.793Z,9.51
2018-04-11T23:35:56.396Z,9.41
2018-04-11T23:38:24.081Z,9.32
2018-04-11T23:40:51.633Z,9.29
2018-04-11T23:43:19.537Z,9.29
2018-04-11T23:45:47.739Z,9.34
2018-04-11T23:48:15.295Z,9.34
2018-04-11T23:50:43.141Z,9.41
2018-04-11T23:53:11.714Z,9.33
2018-04-11T23:55:41.914Z,9.27
2018-04-11T23:58:09.690Z,9.28
